createdAt,value
2017-11-06T00:01:49.084Z,7.20
2017-11-06T00:04:16.500Z,7.20
2017-11-06T00:06:43.994Z,7.10
2017-11-06T00:09:11.447Z,7.10
2017-11-06T00:11:38.876Z,7.10
2017-11-06T00:14:06.297Z,7.10
2017-11-06T00:16:33.816Z,7.00
2017-11-06T00:19:01.245Z,7.00
2017-11-06T00:21:28.717Z,7.00
2017-11-06T00:23:56.137Z,7.00
2017-11-06T00:26:23.568Z,6.90
2017-11-06T00:28:50.996Z,6.90
2017-11-06T00:31:18.476Z,6.90
2017-11-06T00:33:45.892Z,6.90
2017-11-06T00:36:13.465Z,6.80
2017-11-06T00:38:40.920Z,6.80
2017-11-06T00:41:08.347Z,6.80
2017-11-06T00:43:35.833Z,6.80
2017-11-06T00:46:03.253Z,6.70
2017-11-06T00:48:30.746Z,6.70
2017-11-06T00:50:58.164Z,6.70
2017-11-06T00:53:25.598Z,6.70
2017-11-06T00:55:53.018Z,6.60
2017-11-06T00:58:20.472Z,6.60
2017-11-06T01:00:47.902Z,6.60
2017-11-06T01:03:15.396Z,6.60
2017-11-06T01:05:42.939Z,6.50
2017-11-06T01:08:10.376Z,6.50
2017-11-06T01:10:37.797Z,6.50
2017-11-06T01:13:05.220Z,6.50
2017-11-06T01:15:32.768Z,6.40
2017-11-06T01:18:00.400Z,6.40
2017-11-06T01:20:27.895Z,6.40
2017-11-06T01:22:55.320Z,6.30
2017-11-06T01:25:22.807Z,6.30
2017-11-06T01:27:50.256Z,6.30
2017-11-06T01:30:17.824Z,6.40
2017-11-06T01:32:45.249Z,6.40
2017-11-06T01:35:12.728Z,6.40
2017-11-06T01:37:40.156Z,6.40
2017-11-06T01:40:07.587Z,6.50
2017-11-06T01:42:35.096Z,6.50
2017-11-06T01:45:02.528Z,6.50
2017-11-06T01:47:29.948Z,6.50
2017-11-06T01:49:58.308Z,6.50
2017-11-06T01:52:26.968Z,6.50
2017-11-06T01:54:54.360Z,6.50
2017-11-06T01:57:21.976Z,6.50
2017-11-06T01:59:49.396Z,6.60
2017-11-06T02:02:16.901Z,6.50
2017-11-06T02:04:44.352Z,6.50
2017-11-06T02:07:11.988Z,6.50
2017-11-06T02:09:39.416Z,6.40
2017-11-06T02:12:07.640Z,6.30
2017-11-06T02:14:35.056Z,6.30
2017-11-06T02:17:02.553Z,6.30
2017-11-06T02:19:29.975Z,6.30
2017-11-06T02:21:57.472Z,6.20
2017-11-06T02:24:24.892Z,6.20
2017-11-06T02:26:52.380Z,6.20
2017-11-06T02:29:19.840Z,6.20
2017-11-06T02:31:47.273Z,6.20
2017-11-06T02:34:14.695Z,6.10
2017-11-06T02:36:42.120Z,6.10
2017-11-06T02:39:09.662Z,6.10
2017-11-06T02:41:37.081Z,6.00
2017-11-06T02:44:04.509Z,6.00
2017-11-06T02:46:31.932Z,6.00
2017-11-06T02:48:59.428Z,5.90
2017-11-06T02:51:26.938Z,5.90
2017-11-06T02:53:54.367Z,5.90
2017-11-06T02:56:21.780Z,5.80
2017-11-06T02:58:50.136Z,5.80
2017-11-06T03:01:17.620Z,5.80
2017-11-06T03:03:45.142Z,5.70
2017-11-06T03:06:12.602Z,5.70
2017-11-06T03:08:40.038Z,5.70
2017-11-06T03:11:07.510Z,5.70
2017-11-06T03:13:34.971Z,5.60
2017-11-06T03:16:02.392Z,5.60
2017-11-06T03:18:29.882Z,5.60
2017-11-06T03:20:57.339Z,5.50
2017-11-06T03:23:24.756Z,5.60
2017-11-06T03:25:52.280Z,5.50
2017-11-06T03:28:19.708Z,5.60
2017-11-06T03:30:47.161Z,5.60
2017-11-06T03:33:14.621Z,5.50
2017-11-06T03:35:42.056Z,5.50
2017-11-06T03:38:09.528Z,5.50
2017-11-06T03:40:36.994Z,5.50
2017-11-06T03:43:04.443Z,5.40
2017-11-06T03:45:31.899Z,5.40
2017-11-06T03:47:59.356Z,5.40
2017-11-06T03:50:26.809Z,5.30
2017-11-06T03:52:54.268Z,5.30
2017-11-06T03:55:21.703Z,5.30
2017-11-06T03:57:49.113Z,5.20
2017-11-06T04:00:16.635Z,5.20
2017-11-06T04:02:44.044Z,5.20
2017-11-06T04:05:11.555Z,5.20
2017-11-06T04:07:38.976Z,5.20
2017-11-06T04:10:06.393Z,5.10
2017-11-06T04:12:33.917Z,5.10
2017-11-06T04:15:01.332Z,5.10
2017-11-06T04:17:28.761Z,5.00
2017-11-06T04:19:56.184Z,5.00
2017-11-06T04:22:23.608Z,5.00
2017-11-06T04:24:51.197Z,5.00
2017-11-06T04:27:18.653Z,5.00
2017-11-06T04:29:46.069Z,4.90
2017-11-06T04:32:13.497Z,4.90
2017-11-06T04:34:41.024Z,4.90
2017-11-06T04:37:08.464Z,4.90
2017-11-06T04:39:35.936Z,4.90
2017-11-06T04:42:03.395Z,4.80
2017-11-06T04:44:30.849Z,4.80
2017-11-06T04:46:58.263Z,4.80
2017-11-06T04:49:25.688Z,4.70
2017-11-06T04:51:53.110Z,4.70
2017-11-06T04:54:20.585Z,4.70
2017-11-06T04:56:48.000Z,4.70
2017-11-06T04:59:15.592Z,4.70
2017-11-06T05:01:43.008Z,4.70
2017-11-06T05:04:10.440Z,4.70
2017-11-06T05:06:37.857Z,4.70
2017-11-06T05:09:05.288Z,4.80
2017-11-06T05:11:32.732Z,4.80
2017-11-06T05:14:00.328Z,4.80
2017-11-06T05:16:27.746Z,4.80
2017-11-06T05:18:55.242Z,4.80
2017-11-06T05:21:22.668Z,4.90
2017-11-06T05:23:50.084Z,4.90
2017-11-06T05:26:17.518Z,4.90
2017-11-06T05:28:45.064Z,4.90
2017-11-06T05:31:12.499Z,4.80
2017-11-06T05:33:39.924Z,4.80
2017-11-06T05:36:07.352Z,4.80
2017-11-06T05:38:34.778Z,4.80
2017-11-06T05:41:02.220Z,4.80
2017-11-06T05:43:29.697Z,4.70
2017-11-06T05:45:57.254Z,4.70
2017-11-06T05:48:24.668Z,4.70
2017-11-06T05:50:52.093Z,4.70
2017-11-06T05:53:19.556Z,4.70
2017-11-06T05:55:47.164Z,4.70
2017-11-06T05:58:14.760Z,4.60
2017-11-06T06:00:42.200Z,4.60
2017-11-06T06:03:09.668Z,4.60
2017-11-06T06:05:37.084Z,4.60
2017-11-06T06:08:04.665Z,4.60
2017-11-06T06:10:32.085Z,4.60
2017-11-06T06:12:59.586Z,4.50
2017-11-06T06:15:27.006Z,4.50
2017-11-06T06:17:54.488Z,4.50
2017-11-06T06:20:21.944Z,4.50
2017-11-06T06:22:49.372Z,4.50
2017-11-06T06:25:16.797Z,4.50
2017-11-06T06:27:44.220Z,4.40
2017-11-06T06:30:11.683Z,4.50
2017-11-06T06:32:39.162Z,4.40
2017-11-06T06:35:06.689Z,4.40
2017-11-06T06:37:34.123Z,4.30
2017-11-06T06:40:01.545Z,4.30
2017-11-06T06:42:29.064Z,4.30
2017-11-06T06:44:56.472Z,4.30
2017-11-06T06:47:23.900Z,4.30
2017-11-06T06:49:51.421Z,4.30
2017-11-06T06:52:18.844Z,4.30
2017-11-06T06:54:46.279Z,4.30
2017-11-06T06:57:13.724Z,4.30
2017-11-06T06:59:41.249Z,4.30
2017-11-06T07:02:08.712Z,4.30
2017-11-06T07:04:36.140Z,4.30
2017-11-06T07:07:03.621Z,4.40
2017-11-06T07:09:31.056Z,4.50
2017-11-06T07:11:58.530Z,4.50
2017-11-06T07:14:25.989Z,4.50
2017-11-06T07:16:53.414Z,4.60
2017-11-06T07:19:20.905Z,4.60
2017-11-06T07:21:48.540Z,4.60
2017-11-06T07:24:16.001Z,4.70
2017-11-06T07:26:43.581Z,4.70
2017-11-06T07:29:11.036Z,4.80
2017-11-06T07:31:38.460Z,4.80
2017-11-06T07:34:05.903Z,4.90
2017-11-06T07:36:33.332Z,5.00
2017-11-06T07:39:00.859Z,5.10
2017-11-06T07:41:28.496Z,5.20
2017-11-06T07:43:56.081Z,5.30
2017-11-06T07:46:23.536Z,5.40
2017-11-06T07:48:50.996Z,5.50
2017-11-06T07:51:18.452Z,5.50
2017-11-06T07:53:46.213Z,5.60
2017-11-06T07:56:13.853Z,5.70
2017-11-06T07:58:41.369Z,5.80
2017-11-06T08:01:09.729Z,6.10
2017-11-06T08:03:37.264Z,6.00
2017-11-06T08:06:04.908Z,6.20
2017-11-06T08:08:32.489Z,6.30
2017-11-06T08:11:00.249Z,6.50
2017-11-06T08:13:28.010Z,6.60
2017-11-06T08:15:55.465Z,6.70
2017-11-06T08:18:22.924Z,6.80
2017-11-06T08:20:50.348Z,6.90
2017-11-06T08:23:17.780Z,7.10
2017-11-06T08:25:45.205Z,7.30
2017-11-06T08:28:12.746Z,7.40
2017-11-06T08:30:40.164Z,7.50
2017-11-06T08:33:07.665Z,7.60
2017-11-06T08:35:35.084Z,7.80
2017-11-06T08:38:02.561Z,7.90
2017-11-06T08:40:30.029Z,8.00
2017-11-06T08:42:57.463Z,8.10
2017-11-06T08:45:24.943Z,8.20
2017-11-06T08:47:52.372Z,8.40
2017-11-06T08:50:19.857Z,8.50
2017-11-06T08:52:47.285Z,8.60
2017-11-06T08:55:14.709Z,8.70
2017-11-06T08:57:42.224Z,8.80
2017-11-06T09:00:09.685Z,8.90
2017-11-06T09:02:37.325Z,9.00
2017-11-06T09:05:04.872Z,9.10
2017-11-06T09:07:32.360Z,9.30
2017-11-06T09:09:59.812Z,9.40
2017-11-06T09:12:27.233Z,9.60
2017-11-06T09:14:54.726Z,9.80
2017-11-06T09:17:22.149Z,9.90
2017-11-06T09:19:49.577Z,10.10
2017-11-06T09:22:17.000Z,10.20
2017-11-06T09:24:44.553Z,10.40
2017-11-06T09:27:11.979Z,10.50
2017-11-06T09:29:39.408Z,10.70
2017-11-06T09:32:06.828Z,10.90
2017-11-06T09:34:34.352Z,11.00
2017-11-06T09:37:01.841Z,11.10
2017-11-06T09:39:29.473Z,11.30
2017-11-06T09:41:56.924Z,11.50
2017-11-06T09:44:24.513Z,11.60
2017-11-06T09:46:51.948Z,11.80
2017-11-06T09:49:19.427Z,11.90
2017-11-06T09:51:47.189Z,11.90
2017-11-06T09:54:14.629Z,12.10
2017-11-06T09:56:42.056Z,12.30
2017-11-06T09:59:09.549Z,12.50
2017-11-06T10:01:36.985Z,12.60
2017-11-06T10:04:04.410Z,12.70
2017-11-06T10:06:31.837Z,12.80
2017-11-06T10:08:59.379Z,13.00
2017-11-06T10:11:26.835Z,13.30
2017-11-06T10:13:54.284Z,13.50
2017-11-06T10:16:21.722Z,13.70
2017-11-06T10:18:49.136Z,13.90
2017-11-06T10:21:17.460Z,13.90
2017-11-06T10:23:44.968Z,13.90
2017-11-06T10:26:12.428Z,13.80
2017-11-06T10:28:39.956Z,13.80
2017-11-06T10:31:07.392Z,13.80
2017-11-06T10:33:34.820Z,13.90
2017-11-06T10:36:02.320Z,13.90
2017-11-06T10:38:29.752Z,13.90
2017-11-06T10:40:57.228Z,14.10
2017-11-06T10:43:24.690Z,14.30
2017-11-06T10:45:52.103Z,14.40
2017-11-06T10:48:19.601Z,14.40
2017-11-06T10:50:47.057Z,14.50
2017-11-06T10:53:14.486Z,14.70
2017-11-06T10:55:41.901Z,14.70
2017-11-06T10:58:09.335Z,14.90
2017-11-06T11:00:36.759Z,15.20
2017-11-06T11:03:04.344Z,15.60
2017-11-06T11:05:31.768Z,15.90
2017-11-06T11:08:00.184Z,16.00
2017-11-06T11:10:27.605Z,16.10
2017-11-06T11:12:55.054Z,15.80
2017-11-06T11:15:22.540Z,15.60
2017-11-06T11:17:49.961Z,15.50
2017-11-06T11:20:17.064Z,15.40
2017-11-06T11:22:44.112Z,15.30
2017-11-06T11:25:11.748Z,15.30
2017-11-06T11:27:38.719Z,15.20
2017-11-06T11:30:06.354Z,15.10
2017-11-06T11:32:33.771Z,15.10
2017-11-06T11:35:01.269Z,15.30
2017-11-06T11:37:28.684Z,15.60
2017-11-06T11:39:56.189Z,15.70
2017-11-06T11:42:23.608Z,15.90
2017-11-06T11:44:51.088Z,16.10
2017-11-06T11:47:18.513Z,16.20
2017-11-06T11:49:46.009Z,16.50
2017-11-06T11:52:13.420Z,16.80
2017-11-06T11:54:40.840Z,17.00
2017-11-06T11:57:08.252Z,17.00
2017-11-06T11:59:35.828Z,17.00
2017-11-06T12:02:03.241Z,16.70
2017-11-06T12:04:30.664Z,16.60
2017-11-06T12:06:58.108Z,16.60
2017-11-06T12:09:25.268Z,16.70
2017-11-06T12:11:52.809Z,16.80
2017-11-06T12:14:19.959Z,17.20
2017-11-06T12:16:47.395Z,17.40
2017-11-06T12:19:14.800Z,17.30
2017-11-06T12:21:42.324Z,17.10
2017-11-06T12:24:09.788Z,17.10
2017-11-06T12:26:37.213Z,17.20
2017-11-06T12:29:04.696Z,17.30
2017-11-06T12:31:32.070Z,17.60
2017-11-06T12:33:59.031Z,17.80
2017-11-06T12:36:26.452Z,18.10
2017-11-06T12:38:53.868Z,18.80
2017-11-06T12:41:21.360Z,19.70
2017-11-06T12:43:48.780Z,20.70
2017-11-06T12:46:16.268Z,21.90
2017-11-06T12:48:43.727Z,23.10
2017-11-06T12:51:11.184Z,24.40
2017-11-06T12:53:38.607Z,25.70
2017-11-06T12:56:06.094Z,26.70
2017-11-06T12:58:33.515Z,28.00
2017-11-06T13:01:01.006Z,28.60
2017-11-06T13:03:28.427Z,27.40
2017-11-06T13:05:55.924Z,25.30
2017-11-06T13:08:23.344Z,23.20
2017-11-06T13:10:50.761Z,22.20
2017-11-06T13:13:18.196Z,23.70
2017-11-06T13:15:45.616Z,25.70
2017-11-06T13:18:13.816Z,29.20
2017-11-06T13:20:41.228Z,29.20
2017-11-06T13:23:08.728Z,30.40
2017-11-06T13:25:36.185Z,31.60
2017-11-06T13:28:03.617Z,32.00
2017-11-06T13:30:31.026Z,30.90
2017-11-06T13:32:58.466Z,30.70
2017-11-06T13:35:26.012Z,31.70
2017-11-06T13:37:53.424Z,32.30
2017-11-06T13:40:20.925Z,31.10
2017-11-06T13:42:48.336Z,28.90
2017-11-06T13:45:15.765Z,26.90
2017-11-06T13:47:43.293Z,24.90
2017-11-06T13:50:10.724Z,23.10
2017-11-06T13:52:38.201Z,21.40
2017-11-06T13:55:05.620Z,20.20
2017-11-06T13:57:33.101Z,19.30
2017-11-06T14:00:00.526Z,18.50
2017-11-06T14:02:27.932Z,18.10
2017-11-06T14:04:55.361Z,17.80
2017-11-06T14:07:22.870Z,17.80
2017-11-06T14:09:50.397Z,17.80
2017-11-06T14:12:17.849Z,17.60
2017-11-06T14:14:45.263Z,17.20
2017-11-06T14:17:12.769Z,16.80
2017-11-06T14:19:40.181Z,16.40
2017-11-06T14:22:07.644Z,16.10
2017-11-06T14:24:35.135Z,15.80
2017-11-06T14:27:02.564Z,15.40
2017-11-06T14:29:29.976Z,15.00
2017-11-06T14:31:57.421Z,14.80
2017-11-06T14:34:24.836Z,14.50
2017-11-06T14:36:52.327Z,14.20
2017-11-06T14:39:19.748Z,14.10
2017-11-06T14:41:48.131Z,13.60
2017-11-06T14:44:15.614Z,13.60
2017-11-06T14:46:43.040Z,13.40
2017-11-06T14:49:10.520Z,13.30
2017-11-06T14:51:38.008Z,13.10
2017-11-06T14:54:05.532Z,13.00
2017-11-06T14:56:32.952Z,12.90
2017-11-06T14:59:00.408Z,12.90
2017-11-06T15:01:27.897Z,13.00
2017-11-06T15:03:55.356Z,13.10
2017-11-06T15:06:22.784Z,13.10
2017-11-06T15:08:50.220Z,13.10
2017-11-06T15:11:18.405Z,12.80
2017-11-06T15:13:46.596Z,12.60
2017-11-06T15:16:14.025Z,12.60
2017-11-06T15:18:42.236Z,12.20
2017-11-06T15:21:09.657Z,12.20
2017-11-06T15:23:37.162Z,12.00
2017-11-06T15:26:04.580Z,11.90
2017-11-06T15:28:32.072Z,11.70
2017-11-06T15:30:59.533Z,11.50
2017-11-06T15:33:26.957Z,11.40
2017-11-06T15:35:54.437Z,11.30
2017-11-06T15:38:21.893Z,11.10
2017-11-06T15:40:49.324Z,11.00
2017-11-06T15:43:16.753Z,10.90
2017-11-06T15:45:44.269Z,10.90
2017-11-06T15:48:11.896Z,10.70
2017-11-06T15:50:39.428Z,10.70
2017-11-06T15:53:06.853Z,10.60
2017-11-06T15:55:34.399Z,10.60
2017-11-06T15:58:01.857Z,10.50
2017-11-06T16:00:29.325Z,10.40
2017-11-06T16:02:57.025Z,10.30
2017-11-06T16:05:24.506Z,10.30
2017-11-06T16:07:51.936Z,10.20
2017-11-06T16:10:19.372Z,10.10
2017-11-06T16:12:46.863Z,10.10
2017-11-06T16:15:14.304Z,10.00
2017-11-06T16:17:41.756Z,10.00
2017-11-06T16:20:09.176Z,10.00
2017-11-06T16:22:36.720Z,10.00
2017-11-06T16:25:04.143Z,10.00
2017-11-06T16:27:31.571Z,9.90
2017-11-06T16:29:58.992Z,9.90
2017-11-06T16:32:27.164Z,9.80
2017-11-06T16:34:54.656Z,9.70
2017-11-06T16:37:22.336Z,9.60
2017-11-06T16:39:49.795Z,9.60
2017-11-06T16:42:17.208Z,9.50
2017-11-06T16:44:44.762Z,9.40
2017-11-06T16:47:12.212Z,9.30
2017-11-06T16:49:39.619Z,9.20
2017-11-06T16:52:07.200Z,9.10
2017-11-06T16:54:34.628Z,9.10
2017-11-06T16:57:02.630Z,9.00
2017-11-06T16:59:30.024Z,8.90
2017-11-06T17:01:57.551Z,8.90
2017-11-06T17:04:24.984Z,8.80
2017-11-06T17:06:52.480Z,8.80
2017-11-06T17:09:19.912Z,8.80
2017-11-06T17:11:47.360Z,8.70
2017-11-06T17:14:14.855Z,8.70
2017-11-06T17:16:42.281Z,8.70
2017-11-06T17:19:09.756Z,8.70
2017-11-06T17:21:37.164Z,8.60
2017-11-06T17:24:04.596Z,8.60
2017-11-06T17:26:32.018Z,8.60
2017-11-06T17:28:59.576Z,8.60
2017-11-06T17:31:26.996Z,8.60
2017-11-06T17:33:54.430Z,8.50
2017-11-06T17:36:21.847Z,8.50
2017-11-06T17:38:49.343Z,8.50
2017-11-06T17:41:16.768Z,8.40
2017-11-06T17:43:44.290Z,8.40
2017-11-06T17:46:11.717Z,8.30
2017-11-06T17:48:39.226Z,8.20
2017-11-06T17:51:06.685Z,8.20
2017-11-06T17:53:34.116Z,8.10
2017-11-06T17:56:01.595Z,8.10
2017-11-06T17:58:29.051Z,8.10
2017-11-06T18:00:56.492Z,8.00
2017-11-06T18:03:23.917Z,7.90
2017-11-06T18:05:51.424Z,7.90
2017-11-06T18:08:18.852Z,7.80
2017-11-06T18:10:46.285Z,7.80
2017-11-06T18:13:13.702Z,7.80
2017-11-06T18:15:41.257Z,7.70
2017-11-06T18:18:08.684Z,7.70
2017-11-06T18:20:36.158Z,7.60
2017-11-06T18:23:03.588Z,7.60
2017-11-06T18:25:31.030Z,7.60
2017-11-06T18:27:58.448Z,7.50
2017-11-06T18:30:25.890Z,7.50
2017-11-06T18:32:53.444Z,7.40
2017-11-06T18:35:21.227Z,7.40
2017-11-06T18:37:48.977Z,7.40
2017-11-06T18:40:16.401Z,7.40
2017-11-06T18:42:43.891Z,7.40
2017-11-06T18:45:11.530Z,7.40
2017-11-06T18:47:39.108Z,7.40
2017-11-06T18:50:06.555Z,7.40
2017-11-06T18:52:33.997Z,7.40
2017-11-06T18:55:01.429Z,7.40
2017-11-06T18:57:29.844Z,7.30
2017-11-06T18:59:57.384Z,7.30
2017-11-06T19:02:25.064Z,7.30
2017-11-06T19:04:52.493Z,7.20
2017-11-06T19:07:19.928Z,7.10
2017-11-06T19:09:47.437Z,7.10
2017-11-06T19:12:14.912Z,7.00
2017-11-06T19:14:42.346Z,7.00
2017-11-06T19:17:09.772Z,7.00
2017-11-06T19:19:37.228Z,7.00
2017-11-06T19:22:04.636Z,7.00
2017-11-06T19:24:32.177Z,6.90
2017-11-06T19:26:59.605Z,6.90
2017-11-06T19:29:27.088Z,6.80
2017-11-06T19:31:54.712Z,6.80
2017-11-06T19:34:22.225Z,6.80
2017-11-06T19:36:49.756Z,6.70
2017-11-06T19:39:17.537Z,6.70
2017-11-06T19:41:45.312Z,6.70
2017-11-06T19:44:12.746Z,6.70
2017-11-06T19:46:40.164Z,6.70
2017-11-06T19:49:07.656Z,6.70
2017-11-06T19:51:35.289Z,6.60
2017-11-06T19:54:02.793Z,6.70
2017-11-06T19:56:30.332Z,6.60
2017-11-06T19:58:57.760Z,6.60
2017-11-06T20:01:25.196Z,6.50
2017-11-06T20:03:52.708Z,6.50
2017-11-06T20:06:20.469Z,6.50
2017-11-06T20:08:48.096Z,6.40
2017-11-06T20:11:15.528Z,6.40
2017-11-06T20:13:43.720Z,6.30
2017-11-06T20:16:11.156Z,6.30
2017-11-06T20:18:38.665Z,6.30
2017-11-06T20:21:06.103Z,6.30
2017-11-06T20:23:33.581Z,6.30
2017-11-06T20:26:01.023Z,6.20
2017-11-06T20:28:28.436Z,6.20
2017-11-06T20:30:55.954Z,6.20
2017-11-06T20:33:23.711Z,6.20
2017-11-06T20:35:51.140Z,6.10
2017-11-06T20:38:18.579Z,6.10
2017-11-06T20:40:45.996Z,6.10
2017-11-06T20:43:13.448Z,6.10
2017-11-06T20:45:40.864Z,6.00
2017-11-06T20:48:08.452Z,6.10
2017-11-06T20:50:35.911Z,6.00
2017-11-06T20:53:03.337Z,6.00
2017-11-06T20:55:30.816Z,6.00
2017-11-06T20:57:58.282Z,6.00
2017-11-06T21:00:25.712Z,5.90
2017-11-06T21:02:53.185Z,5.90
2017-11-06T21:05:20.610Z,5.90
2017-11-06T21:07:48.106Z,5.90
2017-11-06T21:10:15.865Z,5.80
2017-11-06T21:12:43.523Z,5.80
2017-11-06T21:15:11.060Z,5.80
2017-11-06T21:17:38.537Z,5.80
2017-11-06T21:20:05.967Z,5.70
2017-11-06T21:22:33.452Z,5.70
2017-11-06T21:25:00.925Z,5.60
2017-11-06T21:27:28.362Z,5.50
2017-11-06T21:30:01.477Z,5.50
2017-11-06T21:32:29.108Z,5.50
2017-11-06T21:34:56.536Z,5.40
2017-11-06T21:37:23.961Z,5.40
2017-11-06T21:39:51.413Z,5.40
2017-11-06T21:42:18.835Z,5.40
2017-11-06T21:44:46.255Z,5.30
2017-11-06T21:47:14.448Z,5.30
2017-11-06T21:49:41.925Z,5.30
2017-11-06T21:52:09.352Z,5.30
2017-11-06T21:54:36.837Z,5.30
2017-11-06T21:57:04.264Z,5.30
2017-11-06T21:59:31.749Z,5.30
2017-11-06T22:01:59.180Z,5.20
2017-11-06T22:04:26.597Z,5.20
2017-11-06T22:06:54.020Z,5.20
2017-11-06T22:09:21.449Z,5.20
2017-11-06T22:11:48.949Z,5.20
2017-11-06T22:14:16.482Z,5.20
2017-11-06T22:16:43.904Z,5.10
2017-11-06T22:19:11.400Z,5.10
2017-11-06T22:21:38.812Z,5.10
2017-11-06T22:24:06.235Z,5.10
2017-11-06T22:26:33.772Z,5.00
2017-11-06T22:29:01.223Z,5.00
2017-11-06T22:31:28.678Z,5.00
2017-11-06T22:33:56.109Z,5.00
2017-11-06T22:36:23.594Z,4.90
2017-11-06T22:38:51.048Z,4.90
2017-11-06T22:41:18.468Z,4.90
2017-11-06T22:43:45.960Z,4.90
2017-11-06T22:46:13.380Z,4.90
2017-11-06T22:48:40.802Z,4.80
2017-11-06T22:51:08.237Z,4.80
2017-11-06T22:53:35.659Z,4.70
2017-11-06T22:56:03.152Z,4.70
2017-11-06T22:58:30.600Z,4.70
2017-11-06T23:00:58.063Z,4.70
2017-11-06T23:03:25.476Z,4.70
2017-11-06T23:05:52.909Z,4.60
2017-11-06T23:08:21.143Z,4.60
2017-11-06T23:10:48.567Z,4.60
2017-11-06T23:13:16.050Z,4.60
2017-11-06T23:15:43.476Z,4.60
2017-11-06T23:18:10.973Z,4.50
2017-11-06T23:20:38.721Z,4.50
2017-11-06T23:23:06.185Z,4.50
2017-11-06T23:25:33.599Z,4.50
2017-11-06T23:28:01.021Z,4.50
2017-11-06T23:30:28.559Z,4.50
2017-11-06T23:32:55.982Z,4.50
2017-11-06T23:35:23.461Z,4.50
2017-11-06T23:37:50.891Z,4.50
2017-11-06T23:40:18.297Z,4.50
2017-11-06T23:42:45.743Z,4.50
2017-11-06T23:45:13.161Z,4.50
2017-11-06T23:47:40.744Z,4.50
2017-11-06T23:50:08.156Z,4.50
2017-11-06T23:52:35.664Z,4.50
2017-11-06T23:55:03.080Z,4.50
2017-11-06T23:57:30.567Z,4.50
2017-11-06T23:59:57.976Z,4.50
